EDV5187 KLGA-KACK
Flight info
| Callsign | EDV5187 |
|---|---|
| Flight time | N/A |
| Altitude | 21000 |
| Route | BAYYS SEALL/N0382F170 V188 GON DEEPO2 |
| Aircraft | CRJ9/M-SDFGIRWY/S |
Departure
| Time | 2026-05-04 22:14 |
|---|---|
| Airport | LaGuardia Airport (KLGA) |
Arrival
| Time | N/A |
|---|---|
| Airport | Nantucket Memorial Airport (KACK) |
| Time | Latitude | Longitude | Altitude | Speed | Heading |
|---|---|---|---|---|---|
| 2026-05-04 21:57 | 40.77269 | -73.86602 | 19 ft | 0 kts | 138° |
| 2026-05-04 22:04 | 40.77270 | -73.86604 | 18 ft | 1 kts | 137° |
| 2026-05-04 22:04 | 40.77282 | -73.86620 | 19 ft | 3 kts | 121° |
| 2026-05-04 22:05 | 40.77289 | -73.86642 | 21 ft | 3 kts | 86° |
| 2026-05-04 22:05 | 40.77284 | -73.86665 | 20 ft | 3 kts | 50° |
| 2026-05-04 22:05 | 40.77279 | -73.86672 | 19 ft | 1 kts | 43° |
| 2026-05-04 22:07 | 40.77283 | -73.86668 | 19 ft | 2 kts | 43° |
| 2026-05-04 22:08 | 40.77301 | -73.86645 | 19 ft | 5 kts | 43° |
| 2026-05-04 22:08 | 40.77334 | -73.86607 | 18 ft | 7 kts | 38° |
| 2026-05-04 22:08 | 40.77349 | -73.86592 | 18 ft | 0 kts | 38° |
| 2026-05-04 22:08 | 40.77354 | -73.86587 | 19 ft | 2 kts | 38° |
| 2026-05-04 22:09 | 40.77375 | -73.86565 | 16 ft | 6 kts | 36° |
| 2026-05-04 22:09 | 40.77433 | -73.86579 | 11 ft | 12 kts | 303° |
| 2026-05-04 22:09 | 40.77477 | -73.86672 | 10 ft | 12 kts | 301° |
| 2026-05-04 22:09 | 40.77527 | -73.86764 | 11 ft | 12 kts | 310° |
| 2026-05-04 22:10 | 40.77593 | -73.86811 | 10 ft | 12 kts | 3° |
| 2026-05-04 22:10 | 40.77650 | -73.86873 | 10 ft | 11 kts | 300° |
| 2026-05-04 22:10 | 40.77691 | -73.86960 | 11 ft | 11 kts | 302° |
| 2026-05-04 22:10 | 40.77732 | -73.87047 | 11 ft | 11 kts | 301° |
| 2026-05-04 22:11 | 40.77773 | -73.87131 | 12 ft | 11 kts | 301° |
| 2026-05-04 22:11 | 40.77820 | -73.87232 | 12 ft | 14 kts | 302° |
| 2026-05-04 22:11 | 40.77874 | -73.87346 | 12 ft | 15 kts | 302° |
| 2026-05-04 22:11 | 40.77927 | -73.87456 | 13 ft | 14 kts | 302° |
| 2026-05-04 22:12 | 40.77978 | -73.87561 | 14 ft | 14 kts | 302° |
| 2026-05-04 22:12 | 40.78031 | -73.87673 | 13 ft | 15 kts | 302° |
| 2026-05-04 22:12 | 40.78084 | -73.87783 | 15 ft | 14 kts | 301° |
| 2026-05-04 22:12 | 40.78154 | -73.87863 | 19 ft | 14 kts | 346° |
| 2026-05-04 22:13 | 40.78206 | -73.87803 | 12 ft | 10 kts | 114° |
| 2026-05-04 22:13 | 40.78093 | -73.87568 | 10 ft | 66 kts | 122° |
| 2026-05-04 22:13 | 40.77716 | -73.86779 | 12 ft | 133 kts | 122° |
| 2026-05-04 22:13 | 40.77202 | -73.85581 | 354 ft | 159 kts | 118° |
| 2026-05-04 22:14 | 40.76842 | -73.84145 | 970 ft | 177 kts | 95° |
| 2026-05-04 22:14 | 40.77321 | -73.82528 | 1340 ft | 214 kts | 45° |
| 2026-05-04 22:14 | 40.78686 | -73.81616 | 2019 ft | 228 kts | 5° |
| 2026-05-04 22:14 | 40.80287 | -73.81258 | 3004 ft | 239 kts | 9° |
| 2026-05-04 22:15 | 40.81779 | -73.80228 | 3962 ft | 249 kts | 41° |
| 2026-05-04 22:15 | 40.82999 | -73.78504 | 4592 ft | 268 kts | 48° |
| 2026-05-04 22:15 | 40.84195 | -73.76541 | 4865 ft | 279 kts | 52° |
| 2026-05-04 22:15 | 40.85380 | -73.74433 | 4981 ft | 291 kts | 51° |
| 2026-05-04 22:16 | 40.86635 | -73.72319 | 5026 ft | 294 kts | 51° |
| 2026-05-04 22:16 | 40.87794 | -73.70121 | 5655 ft | 289 kts | 56° |
| 2026-05-04 22:16 | 40.88887 | -73.67862 | 6513 ft | 293 kts | 56° |
| 2026-05-04 22:16 | 40.89961 | -73.65559 | 7354 ft | 296 kts | 57° |
| 2026-05-04 22:17 | 40.91027 | -73.63208 | 8155 ft | 300 kts | 57° |
| 2026-05-04 22:17 | 40.92085 | -73.60812 | 8994 ft | 303 kts | 57° |
| 2026-05-04 22:17 | 40.93150 | -73.58356 | 9589 ft | 313 kts | 57° |
| 2026-05-04 22:17 | 40.94242 | -73.55831 | 9835 ft | 323 kts | 57° |
| 2026-05-04 22:18 | 40.95384 | -73.53180 | 9938 ft | 341 kts | 57° |
| 2026-05-04 22:18 | 40.96585 | -73.50407 | 9996 ft | 353 kts | 57° |
| 2026-05-04 22:18 | 40.97816 | -73.47574 | 10016 ft | 356 kts | 57° |
| 2026-05-04 22:18 | 40.99053 | -73.44730 | 10021 ft | 358 kts | 57° |
| 2026-05-04 22:19 | 41.00391 | -73.41965 | 10164 ft | 354 kts | 52° |
| 2026-05-04 22:19 | 41.01901 | -73.39403 | 10201 ft | 352 kts | 44° |
| 2026-05-04 22:19 | 41.03575 | -73.37037 | 10267 ft | 352 kts | 43° |
| 2026-05-04 22:19 | 41.05224 | -73.34625 | 10742 ft | 353 kts | 46° |
| 2026-05-04 22:20 | 41.06814 | -73.32108 | 11467 ft | 358 kts | 47° |
| 2026-05-04 22:20 | 41.08405 | -73.29542 | 12192 ft | 363 kts | 47° |
| 2026-05-04 22:20 | 41.10022 | -73.26945 | 12918 ft | 367 kts | 46° |
| 2026-05-04 22:20 | 41.11679 | -73.24342 | 13638 ft | 372 kts | 46° |
| 2026-05-04 22:21 | 41.13353 | -73.21708 | 14304 ft | 375 kts | 46° |
| 2026-05-04 22:21 | 41.15040 | -73.19049 | 14963 ft | 378 kts | 46° |
| 2026-05-04 22:21 | 41.16745 | -73.16367 | 15622 ft | 382 kts | 46° |
| 2026-05-04 22:21 | 41.18459 | -73.13658 | 16272 ft | 385 kts | 46° |
| 2026-05-04 22:22 | 41.20203 | -73.10913 | 16702 ft | 395 kts | 46° |
| 2026-05-04 22:22 | 41.22004 | -73.08068 | 16891 ft | 408 kts | 46° |
| 2026-05-04 22:22 | 41.23800 | -73.05216 | 16970 ft | 407 kts | 46° |
| 2026-05-04 22:22 | 41.25632 | -73.02325 | 16997 ft | 411 kts | 46° |
| 2026-05-04 22:23 | 41.27474 | -72.99401 | 17012 ft | 415 kts | 47° |
| 2026-05-04 22:23 | 41.29359 | -72.96465 | 17012 ft | 418 kts | 43° |
| 2026-05-04 22:23 | 41.31472 | -72.93806 | 17021 ft | 418 kts | 37° |
| 2026-05-04 22:23 | 41.33690 | -72.91303 | 17028 ft | 418 kts | 37° |
| 2026-05-04 22:24 | 41.35908 | -72.88798 | 17016 ft | 417 kts | 37° |
| 2026-05-04 22:24 | 41.37884 | -72.85980 | 16998 ft | 420 kts | 55° |
| 2026-05-04 22:24 | 41.38968 | -72.82378 | 16999 ft | 422 kts | 78° |
| 2026-05-04 22:24 | 41.39074 | -72.78475 | 17022 ft | 422 kts | 94° |
| 2026-05-04 22:25 | 41.38712 | -72.74596 | 17026 ft | 422 kts | 98° |
| 2026-05-04 22:25 | 41.38276 | -72.70727 | 17032 ft | 423 kts | 98° |
| 2026-05-04 22:25 | 41.37875 | -72.66842 | 17035 ft | 423 kts | 97° |
| 2026-05-04 22:25 | 41.37561 | -72.62948 | 17031 ft | 424 kts | 95° |
| 2026-05-04 22:26 | 41.37281 | -72.59047 | 17024 ft | 424 kts | 95° |
| 2026-05-04 22:26 | 41.36982 | -72.55139 | 17032 ft | 424 kts | 96° |
| 2026-05-04 22:26 | 41.36677 | -72.51230 | 17024 ft | 425 kts | 96° |
| 2026-05-04 22:26 | 41.36372 | -72.47319 | 17022 ft | 425 kts | 96° |
| 2026-05-04 22:27 | 41.36064 | -72.43407 | 17027 ft | 425 kts | 96° |
| 2026-05-04 22:27 | 41.35759 | -72.39505 | 17025 ft | 425 kts | 96° |
| 2026-05-04 22:27 | 41.35449 | -72.35588 | 17020 ft | 425 kts | 96° |
| 2026-05-04 22:27 | 41.35137 | -72.31676 | 17023 ft | 425 kts | 96° |
| 2026-05-04 22:28 | 41.34825 | -72.27761 | 17026 ft | 425 kts | 96° |
| 2026-05-04 22:28 | 41.34509 | -72.23844 | 17024 ft | 425 kts | 95° |
| 2026-05-04 22:28 | 41.34197 | -72.19930 | 17022 ft | 425 kts | 95° |
| 2026-05-04 22:28 | 41.33882 | -72.16015 | 17026 ft | 425 kts | 95° |
| 2026-05-04 22:29 | 41.33566 | -72.12106 | 17021 ft | 425 kts | 96° |
| 2026-05-04 22:29 | 41.33247 | -72.08188 | 16988 ft | 426 kts | 96° |
| 2026-05-04 22:29 | 41.32979 | -72.04257 | 16955 ft | 427 kts | 90° |
| 2026-05-04 22:29 | 41.33094 | -72.00320 | 16948 ft | 426 kts | 83° |
| 2026-05-04 22:30 | 41.33399 | -71.96405 | 16942 ft | 425 kts | 83° |
| 2026-05-04 22:30 | 41.33703 | -71.92495 | 16941 ft | 425 kts | 83° |
| 2026-05-04 22:30 | 41.33948 | -71.88570 | 16962 ft | 426 kts | 84° |
| 2026-05-04 22:30 | 41.34138 | -71.84635 | 16959 ft | 426 kts | 85° |
| 2026-05-04 22:31 | 41.34334 | -71.80707 | 16959 ft | 426 kts | 84° |
| 2026-05-04 22:31 | 41.34535 | -71.76779 | 16957 ft | 425 kts | 84° |
| 2026-05-04 22:31 | 41.34728 | -71.72861 | 16954 ft | 423 kts | 85° |
| 2026-05-04 22:31 | 41.34920 | -71.68960 | 16953 ft | 421 kts | 85° |
| 2026-05-04 22:32 | 41.35112 | -71.65075 | 16952 ft | 420 kts | 85° |
| 2026-05-04 22:32 | 41.35296 | -71.61208 | 16952 ft | 418 kts | 85° |
| 2026-05-04 22:32 | 41.35481 | -71.57351 | 16953 ft | 417 kts | 85° |
| 2026-05-04 22:32 | 41.35665 | -71.53501 | 16957 ft | 416 kts | 85° |
| 2026-05-04 22:33 | 41.35849 | -71.49638 | 16959 ft | 423 kts | 85° |
| 2026-05-04 22:33 | 41.36033 | -71.45704 | 16964 ft | 425 kts | 85° |
| 2026-05-04 22:33 | 41.35817 | -71.41796 | 16945 ft | 426 kts | 105° |
| 2026-05-04 22:33 | 41.34668 | -71.38188 | 16962 ft | 423 kts | 120° |
| 2026-05-04 22:34 | 41.33171 | -71.34829 | 16969 ft | 422 kts | 123° |
| 2026-05-04 22:34 | 41.31629 | -71.31504 | 16972 ft | 421 kts | 122° |
| 2026-05-04 22:34 | 41.30132 | -71.28159 | 16973 ft | 421 kts | 121° |
| 2026-05-04 22:34 | 41.28725 | -71.24798 | 16971 ft | 422 kts | 119° |
| 2026-05-04 22:35 | 41.27308 | -71.21349 | 16966 ft | 414 kts | 120° |
| 2026-05-04 22:35 | 41.25941 | -71.18072 | 16960 ft | 412 kts | 120° |
| 2026-05-04 22:35 | 41.24530 | -71.14700 | 16969 ft | 413 kts | 120° |
| 2026-05-04 22:35 | 41.23136 | -71.11376 | 16971 ft | 409 kts | 120° |
| 2026-05-04 22:36 | 41.21767 | -71.08108 | 16403 ft | 403 kts | 120° |
| 2026-05-04 22:36 | 41.20408 | -71.04877 | 15632 ft | 399 kts | 120° |
| 2026-05-04 22:36 | 41.19067 | -71.01680 | 14886 ft | 394 kts | 120° |
| 2026-05-04 22:36 | 41.17753 | -70.98560 | 14180 ft | 390 kts | 121° |
| 2026-05-04 22:37 | 41.16667 | -70.95232 | 13390 ft | 388 kts | 102° |
| 2026-05-04 22:37 | 41.16581 | -70.91695 | 12600 ft | 382 kts | 81° |
| 2026-05-04 22:37 | 41.16991 | -70.88285 | 11847 ft | 377 kts | 78° |
| 2026-05-04 22:37 | 41.17472 | -70.84884 | 11104 ft | 372 kts | 77° |
| 2026-05-04 22:38 | 41.17972 | -70.81575 | 10744 ft | 355 kts | 76° |
| 2026-05-04 22:38 | 41.18461 | -70.78428 | 10605 ft | 333 kts | 76° |
| 2026-05-04 22:38 | 41.18920 | -70.75495 | 10455 ft | 317 kts | 76° |
| 2026-05-04 22:38 | 41.19368 | -70.72644 | 10243 ft | 315 kts | 76° |
| 2026-05-04 22:39 | 41.19822 | -70.69767 | 9499 ft | 320 kts | 76° |
| 2026-05-04 22:39 | 41.20277 | -70.66917 | 8893 ft | 317 kts | 76° |
| 2026-05-04 22:39 | 41.20827 | -70.64130 | 8349 ft | 308 kts | 64° |
| 2026-05-04 22:39 | 41.21718 | -70.61590 | 7837 ft | 301 kts | 64° |
| 2026-05-04 22:40 | 41.22520 | -70.59037 | 7403 ft | 299 kts | 65° |
| 2026-05-04 22:40 | 41.23306 | -70.56451 | 7036 ft | 304 kts | 66° |
| 2026-05-04 22:40 | 41.24101 | -70.53834 | 6670 ft | 307 kts | 66° |